createdAt,value
2022-10-05T00:00:55.841Z,9.60
2022-10-05T00:03:39.087Z,9.60
2022-10-05T00:06:09.392Z,9.50
2022-10-05T00:08:45.018Z,9.40
2022-10-05T00:11:14.475Z,9.40
2022-10-05T00:13:42.688Z,9.50
2022-10-05T00:16:19.281Z,9.40
2022-10-05T00:18:49.538Z,9.40
2022-10-05T00:21:23.950Z,9.40
2022-10-05T00:23:52.083Z,9.40
2022-10-05T00:26:22.982Z,9.40
2022-10-05T00:28:50.827Z,9.30
2022-10-05T00:31:33.042Z,9.30
2022-10-05T00:34:04.804Z,9.30
2022-10-05T00:36:32.403Z,9.20
2022-10-05T00:39:05.570Z,9.20
2022-10-05T00:42:13.154Z,9.30
2022-10-05T00:44:53.425Z,9.30
2022-10-05T00:47:30.859Z,9.30
2022-10-05T00:50:19.049Z,9.30
2022-10-05T00:53:13.949Z,9.30
2022-10-05T00:56:28.376Z,9.30
2022-10-05T00:59:40.424Z,9.30
2022-10-05T01:02:12.928Z,9.30
2022-10-05T01:04:49.020Z,9.30
2022-10-05T01:07:22.182Z,9.30
2022-10-05T01:10:10.651Z,9.40
2022-10-05T01:13:01.117Z,9.30
2022-10-05T01:15:46.670Z,9.30
2022-10-05T01:18:31.146Z,9.40
2022-10-05T01:21:23.002Z,9.30
2022-10-05T01:23:52.952Z,9.30
2022-10-05T01:26:22.583Z,9.30
2022-10-05T01:29:04.143Z,9.20
2022-10-05T01:31:59.015Z,9.30
2022-10-05T01:34:43.913Z,9.20
2022-10-05T01:37:14.886Z,9.20
2022-10-05T01:39:50.404Z,9.20
2022-10-05T01:42:32.338Z,9.30
2022-10-05T01:45:01.471Z,9.30
2022-10-05T01:47:51.772Z,9.30
2022-10-05T01:50:56.973Z,9.20
2022-10-05T01:53:36.597Z,9.30
2022-10-05T01:56:47.262Z,9.20
2022-10-05T01:59:40.549Z,9.20
2022-10-05T02:02:11.559Z,9.20
2022-10-05T02:05:03.932Z,9.20
2022-10-05T02:07:38.691Z,9.20
2022-10-05T02:10:22.462Z,9.20
2022-10-05T02:13:01.146Z,9.20
2022-10-05T02:15:43.722Z,9.20
2022-10-05T02:18:30.401Z,9.10
2022-10-05T02:21:03.015Z,9.20
2022-10-05T02:23:39.105Z,9.20
2022-10-05T02:26:12.661Z,9.10
2022-10-05T02:28:53.156Z,9.10
2022-10-05T02:31:46.219Z,9.10
2022-10-05T02:34:44.839Z,9.10
2022-10-05T02:37:25.374Z,9.00
2022-10-05T02:40:21.069Z,9.00
2022-10-05T02:43:12.479Z,9.00
2022-10-05T02:46:15.335Z,8.90
2022-10-05T02:48:59.431Z,9.00
2022-10-05T02:51:32.567Z,9.00
2022-10-05T02:54:39.079Z,8.90
2022-10-05T02:57:34.097Z,8.90
2022-10-05T03:00:22.855Z,8.90
2022-10-05T03:02:55.833Z,8.90
2022-10-05T03:05:42.315Z,8.90
2022-10-05T03:08:44.149Z,8.90
2022-10-05T03:11:37.294Z,9.00
2022-10-05T03:14:23.303Z,8.90
2022-10-05T03:17:20.285Z,9.00
2022-10-05T03:20:17.735Z,9.00
2022-10-05T03:22:57.502Z,9.10
2022-10-05T03:25:56.137Z,9.10
2022-10-05T03:28:55.942Z,9.10
2022-10-05T03:31:58.807Z,9.10
2022-10-05T03:34:46.253Z,9.20
2022-10-05T03:37:31.319Z,9.20
2022-10-05T03:40:09.244Z,9.20
2022-10-05T03:43:05.341Z,9.20
2022-10-05T03:46:02.550Z,9.30
2022-10-05T03:48:42.146Z,9.30
2022-10-05T03:51:21.374Z,9.30
2022-10-05T03:53:59.474Z,9.30
2022-10-05T03:57:10.183Z,9.30
2022-10-05T03:59:47.936Z,9.30
2022-10-05T04:02:41.221Z,9.30
2022-10-05T04:05:10.892Z,9.40
2022-10-05T04:07:47.530Z,9.40
2022-10-05T04:10:24.465Z,9.40
2022-10-05T04:13:02.927Z,9.40
2022-10-05T04:15:51.552Z,9.50
2022-10-05T04:18:32.243Z,9.40
2022-10-05T04:21:13.675Z,9.40
2022-10-05T04:24:03.069Z,9.50
2022-10-05T04:26:39.614Z,9.50
2022-10-05T04:29:29.953Z,9.50
2022-10-05T04:32:16.578Z,9.50
2022-10-05T04:35:09.682Z,9.50
2022-10-05T04:38:16.989Z,9.60
2022-10-05T04:41:02.893Z,9.50
2022-10-05T04:43:40.516Z,9.50
2022-10-05T04:46:18.404Z,9.50
2022-10-05T04:49:20.653Z,9.60
2022-10-05T04:52:03.207Z,9.60
2022-10-05T04:54:46.618Z,9.60
2022-10-05T04:57:23.425Z,9.60
2022-10-05T05:00:10.192Z,9.60
2022-10-05T05:03:21.086Z,9.60
2022-10-05T05:06:17.012Z,9.60
2022-10-05T05:09:23.637Z,9.50
2022-10-05T05:11:55.912Z,9.60
2022-10-05T05:14:32.387Z,9.50
2022-10-05T05:17:19.554Z,9.60
2022-10-05T05:20:21.044Z,9.50
2022-10-05T05:23:19.177Z,9.50
2022-10-05T05:26:14.032Z,9.60
2022-10-05T05:28:58.571Z,9.60
2022-10-05T05:31:41.739Z,9.60
2022-10-05T05:34:35.086Z,9.60
2022-10-05T05:37:35.405Z,9.70
2022-10-05T05:40:27.658Z,9.70
2022-10-05T05:43:02.395Z,9.70
2022-10-05T05:45:38.346Z,9.80
2022-10-05T05:48:33.278Z,9.90
2022-10-05T05:51:22.097Z,9.90
2022-10-05T05:54:16.810Z,10.00
2022-10-05T05:56:47.336Z,10.10
2022-10-05T05:59:24.603Z,10.20
2022-10-05T06:02:08.444Z,10.30
2022-10-05T06:04:40.896Z,10.30
2022-10-05T06:07:17.815Z,10.40
2022-10-05T06:09:57.941Z,10.50
2022-10-05T06:12:44.889Z,10.60
2022-10-05T06:15:24.714Z,10.70
2022-10-05T06:18:01.245Z,10.70
2022-10-05T06:20:59.899Z,10.80
2022-10-05T06:23:46.124Z,10.80
2022-10-05T06:26:28.246Z,10.90
2022-10-05T06:29:00.959Z,10.90
2022-10-05T06:32:03.845Z,11.00
2022-10-05T06:35:17.400Z,11.10
2022-10-05T06:38:12.514Z,11.20
2022-10-05T06:41:06.393Z,11.20
2022-10-05T06:44:06.136Z,11.30
2022-10-05T06:46:41.445Z,11.30
2022-10-05T06:49:45.582Z,11.40
2022-10-05T06:53:18.261Z,11.50
2022-10-05T06:56:15.604Z,11.60
2022-10-05T06:59:12.891Z,11.70
2022-10-05T07:02:21.142Z,11.80
2022-10-05T07:05:26.991Z,11.90
2022-10-05T07:07:57.935Z,11.90
2022-10-05T07:10:35.921Z,12.10
2022-10-05T07:13:24.812Z,12.10
2022-10-05T07:16:32.692Z,12.20
2022-10-05T07:19:18.296Z,12.30
2022-10-05T07:22:22.284Z,12.40
2022-10-05T07:25:34.135Z,12.50
2022-10-05T07:28:14.284Z,12.50
2022-10-05T07:31:12.412Z,12.50
2022-10-05T07:34:09.685Z,12.60
2022-10-05T07:37:15.274Z,12.60
2022-10-05T07:40:00.869Z,12.60
2022-10-05T07:42:52.294Z,12.70
2022-10-05T07:45:28.629Z,12.80
2022-10-05T07:48:21.548Z,12.80
2022-10-05T07:50:59.396Z,12.80
2022-10-05T07:53:40.609Z,12.80
2022-10-05T07:56:29.837Z,12.90
2022-10-05T07:59:07.816Z,12.90
2022-10-05T08:01:40.921Z,13.00
2022-10-05T08:04:22.843Z,13.00
2022-10-05T08:07:03.220Z,13.10
2022-10-05T08:09:59.448Z,13.30
2022-10-05T08:12:36.286Z,13.40
2022-10-05T08:15:16.578Z,13.60
2022-10-05T08:17:53.857Z,13.70
2022-10-05T08:20:49.741Z,13.80
2022-10-05T08:23:43.195Z,13.90
2022-10-05T08:26:22.714Z,14.10
2022-10-05T08:28:55.874Z,14.10
2022-10-05T08:31:29.779Z,14.20
2022-10-05T08:34:09.257Z,14.30
2022-10-05T08:36:39.635Z,14.40
2022-10-05T08:39:16.103Z,14.50
2022-10-05T08:41:55.467Z,14.60
2022-10-05T08:44:49.603Z,14.60
2022-10-05T08:47:45.608Z,14.70
2022-10-05T08:50:44.128Z,14.70
2022-10-05T08:53:36.330Z,14.70
2022-10-05T08:56:28.605Z,14.70
2022-10-05T08:59:38.219Z,14.80
2022-10-05T09:02:31.068Z,14.80
2022-10-05T09:05:36.777Z,14.90
2022-10-05T09:08:29.823Z,14.80
2022-10-05T09:11:14.038Z,14.80
2022-10-05T09:14:01.382Z,14.90
2022-10-05T09:16:51.755Z,14.90
2022-10-05T09:20:06.906Z,14.90
2022-10-05T09:22:46.828Z,14.80
2022-10-05T09:25:55.857Z,14.80
2022-10-05T09:28:23.671Z,14.80
2022-10-05T09:31:01.515Z,14.80
2022-10-05T09:34:06.539Z,14.80
2022-10-05T09:36:51.568Z,14.80
2022-10-05T09:39:43.559Z,15.00
2022-10-05T09:42:25.720Z,15.10
2022-10-05T09:45:11.187Z,15.10
2022-10-05T09:47:53.060Z,15.20
2022-10-05T09:50:38.441Z,15.20
2022-10-05T09:53:32.999Z,15.30
2022-10-05T09:56:00.451Z,15.40
2022-10-05T09:59:00.102Z,15.50
2022-10-05T10:02:01.235Z,15.60
2022-10-05T10:04:39.459Z,15.70
2022-10-05T10:07:25.581Z,15.60
2022-10-05T10:10:37.025Z,15.60
2022-10-05T10:13:13.274Z,15.50
2022-10-05T10:15:54.669Z,15.50
2022-10-05T10:18:55.629Z,15.60
2022-10-05T10:21:53.044Z,15.70
2022-10-05T10:24:29.316Z,15.80
2022-10-05T10:27:41.610Z,15.80
2022-10-05T10:30:36.387Z,15.80
2022-10-05T10:33:36.274Z,15.90
2022-10-05T10:36:43.049Z,15.90
2022-10-05T10:39:28.394Z,16.00
2022-10-05T10:42:38.470Z,16.10
2022-10-05T10:45:28.651Z,16.00
2022-10-05T10:48:07.209Z,16.10
2022-10-05T10:50:53.786Z,16.10
2022-10-05T10:54:03.645Z,16.20
2022-10-05T10:56:47.509Z,16.30
2022-10-05T10:59:34.381Z,16.50
2022-10-05T11:02:22.896Z,16.60
2022-10-05T11:05:03.038Z,16.70
2022-10-05T11:08:09.578Z,16.80
2022-10-05T11:10:48.275Z,16.90
2022-10-05T11:13:36.228Z,17.00
2022-10-05T11:16:22.420Z,16.90
2022-10-05T11:19:07.075Z,17.00
2022-10-05T11:21:59.554Z,17.00
2022-10-05T11:24:50.890Z,17.00
2022-10-05T11:27:47.624Z,17.00
2022-10-05T11:30:19.191Z,17.00
2022-10-05T11:33:06.289Z,17.00
2022-10-05T11:36:13.238Z,17.00
2022-10-05T11:39:08.038Z,17.00
2022-10-05T11:41:59.183Z,17.10
2022-10-05T11:44:57.585Z,17.10
2022-10-05T11:48:02.446Z,17.20
2022-10-05T11:50:54.010Z,17.20
2022-10-05T11:53:41.475Z,17.20
2022-10-05T11:56:23.757Z,17.30
2022-10-05T11:59:15.323Z,17.30
2022-10-05T12:01:57.426Z,17.30
2022-10-05T12:04:29.790Z,17.30
2022-10-05T12:07:02.904Z,17.30
2022-10-05T12:10:08.154Z,17.30
2022-10-05T12:13:01.505Z,17.30
2022-10-05T12:15:55.743Z,17.30
2022-10-05T12:18:39.200Z,17.40
2022-10-05T12:21:27.682Z,17.50
2022-10-05T12:24:50.031Z,17.60
2022-10-05T12:27:27.468Z,17.70
2022-10-05T12:30:03.420Z,17.90
2022-10-05T12:32:44.654Z,17.90
2022-10-05T12:35:43.942Z,17.90
2022-10-05T12:38:28.504Z,17.80
2022-10-05T12:41:32.981Z,17.80
2022-10-05T12:44:37.584Z,17.80
2022-10-05T12:47:28.874Z,17.80
2022-10-05T12:50:24.926Z,17.80
2022-10-05T12:53:09.311Z,17.70
2022-10-05T12:55:51.110Z,17.80
2022-10-05T12:58:25.741Z,17.80
2022-10-05T13:01:02.450Z,17.80
2022-10-05T13:04:04.282Z,17.80
2022-10-05T13:07:02.805Z,17.80
2022-10-05T13:10:21.318Z,17.90
2022-10-05T13:12:55.710Z,17.90
2022-10-05T13:15:58.210Z,17.90
2022-10-05T13:19:04.563Z,17.90
2022-10-05T13:21:50.035Z,17.90
2022-10-05T13:24:19.503Z,17.90
2022-10-05T13:27:03.970Z,17.90
2022-10-05T13:30:02.222Z,17.90
2022-10-05T13:32:37.270Z,17.90
2022-10-05T13:35:32.609Z,17.80
2022-10-05T13:38:28.706Z,17.80
2022-10-05T13:41:16.477Z,17.70
2022-10-05T13:44:12.769Z,17.70
2022-10-05T13:47:24.260Z,17.70
2022-10-05T13:50:00.281Z,17.70
2022-10-05T13:53:04.950Z,17.70
2022-10-05T13:55:51.604Z,17.70
2022-10-05T13:58:28.637Z,17.80
2022-10-05T14:01:13.306Z,17.80
2022-10-05T14:04:24.613Z,17.80
2022-10-05T14:06:55.372Z,17.80
2022-10-05T14:09:31.941Z,17.80
2022-10-05T14:12:07.448Z,17.80
2022-10-05T14:14:52.817Z,17.90
2022-10-05T14:17:41.129Z,17.80
2022-10-05T14:20:37.264Z,17.80
2022-10-05T14:23:24.423Z,17.80
2022-10-05T14:25:57.555Z,17.80
2022-10-05T14:28:29.550Z,17.90
2022-10-05T14:31:16.214Z,17.80
2022-10-05T14:33:48.554Z,17.80
2022-10-05T14:36:32.348Z,17.80
2022-10-05T14:39:04.920Z,17.80
2022-10-05T14:41:44.328Z,17.80
2022-10-05T14:44:14.386Z,17.80
2022-10-05T14:46:54.640Z,17.70
2022-10-05T14:49:31.765Z,17.70
2022-10-05T14:51:59.326Z,17.70
2022-10-05T14:54:45.933Z,17.70
2022-10-05T14:57:43.189Z,17.60
2022-10-05T15:00:18.855Z,17.60
2022-10-05T15:02:52.476Z,17.50
2022-10-05T15:05:43.151Z,17.50
2022-10-05T15:08:40.583Z,17.40
2022-10-05T15:11:19.521Z,17.30
2022-10-05T15:13:49.725Z,17.20
2022-10-05T15:16:31.269Z,17.20
2022-10-05T15:19:16.626Z,17.10
2022-10-05T15:21:46.144Z,17.10
2022-10-05T15:24:22.406Z,17.00
2022-10-05T15:26:53.057Z,16.90
2022-10-05T15:29:47.329Z,16.90
2022-10-05T15:32:41.661Z,16.80
2022-10-05T15:35:39.105Z,16.70
2022-10-05T15:38:21.035Z,16.60
2022-10-05T15:41:47.510Z,16.50
2022-10-05T15:44:46.410Z,16.40
2022-10-05T15:47:28.584Z,16.30
2022-10-05T15:50:32.326Z,16.30
2022-10-05T15:53:16.591Z,16.20
2022-10-05T15:55:52.020Z,16.10
2022-10-05T15:58:58.102Z,16.00
2022-10-05T16:01:33.131Z,15.90
2022-10-05T16:04:04.217Z,15.90
2022-10-05T16:06:55.929Z,15.80
2022-10-05T16:09:37.790Z,15.70
2022-10-05T16:12:12.213Z,15.70
2022-10-05T16:15:02.535Z,15.60
2022-10-05T16:17:33.930Z,15.60
2022-10-05T16:20:37.731Z,15.50
2022-10-05T16:23:17.673Z,15.40
2022-10-05T16:26:03.790Z,15.30
2022-10-05T16:28:39.469Z,15.30
2022-10-05T16:31:31.684Z,15.20
2022-10-05T16:34:17.197Z,15.20
2022-10-05T16:37:18.378Z,15.10
2022-10-05T16:40:02.988Z,15.00
2022-10-05T16:42:53.555Z,14.90
2022-10-05T16:45:59.102Z,14.90
2022-10-05T16:48:36.322Z,14.80
2022-10-05T16:51:31.009Z,14.80
2022-10-05T16:54:28.252Z,14.70
2022-10-05T16:57:11.765Z,14.70
2022-10-05T16:59:57.399Z,14.60
2022-10-05T17:02:38.165Z,14.50
2022-10-05T17:05:30.982Z,14.50
2022-10-05T17:08:10.244Z,14.50
2022-10-05T17:11:00.510Z,14.50
2022-10-05T17:13:43.477Z,14.40
2022-10-05T17:16:31.265Z,14.40
2022-10-05T17:19:06.346Z,14.40
2022-10-05T17:21:54.699Z,14.30
2022-10-05T17:24:53.299Z,14.30
2022-10-05T17:27:35.215Z,14.30
2022-10-05T17:30:31.651Z,14.30
2022-10-05T17:33:14.205Z,14.20
2022-10-05T17:36:01.793Z,14.20
2022-10-05T17:38:34.522Z,14.10
2022-10-05T17:41:23.205Z,14.10
2022-10-05T17:44:21.465Z,14.10
2022-10-05T17:47:04.430Z,14.00
2022-10-05T17:50:13.022Z,14.00
2022-10-05T17:53:02.278Z,14.00
2022-10-05T17:55:43.713Z,14.00
2022-10-05T17:58:27.437Z,14.00
2022-10-05T18:01:17.044Z,13.90
2022-10-05T18:03:53.717Z,13.90
2022-10-05T18:06:24.333Z,13.80
2022-10-05T18:09:27.778Z,13.80
2022-10-05T18:12:11.714Z,13.80
2022-10-05T18:14:55.902Z,13.80
2022-10-05T18:17:42.073Z,13.80
2022-10-05T18:20:24.282Z,13.80
2022-10-05T18:22:54.633Z,13.70
2022-10-05T18:25:43.291Z,13.70
2022-10-05T18:28:24.195Z,13.70
2022-10-05T18:31:16.310Z,13.70
2022-10-05T18:33:50.062Z,13.70
2022-10-05T18:36:57.392Z,13.70
2022-10-05T18:39:58.081Z,13.70
2022-10-05T18:42:41.661Z,13.70
2022-10-05T18:45:47.180Z,13.70
2022-10-05T18:48:35.588Z,13.60
2022-10-05T18:51:28.414Z,13.60
2022-10-05T18:54:25.002Z,13.60
2022-10-05T18:56:56.937Z,13.60
2022-10-05T18:59:27.088Z,13.60
2022-10-05T19:02:19.949Z,13.50
2022-10-05T19:05:46.306Z,13.50
2022-10-05T19:08:17.446Z,13.50
2022-10-05T19:10:50.598Z,13.50
2022-10-05T19:13:37.805Z,13.40
2022-10-05T19:16:18.314Z,13.50
2022-10-05T19:19:04.242Z,13.40
2022-10-05T19:21:51.655Z,13.40
2022-10-05T19:24:31.317Z,13.40
2022-10-05T19:27:04.114Z,13.30
2022-10-05T19:30:13.529Z,13.30
2022-10-05T19:33:11.791Z,13.30
2022-10-05T19:35:58.210Z,13.30
2022-10-05T19:38:52.097Z,13.30
2022-10-05T19:41:33.037Z,13.40
2022-10-05T19:44:22.047Z,13.30
2022-10-05T19:47:02.699Z,13.40
2022-10-05T19:49:39.912Z,13.30
2022-10-05T19:52:13.267Z,13.30
2022-10-05T19:54:43.647Z,13.30
2022-10-05T19:57:18.690Z,13.30
2022-10-05T19:59:49.994Z,13.30
2022-10-05T20:02:17.616Z,13.30
2022-10-05T20:04:55.053Z,13.30
2022-10-05T20:07:23.272Z,13.30
2022-10-05T20:09:51.931Z,13.30
2022-10-05T20:12:24.564Z,13.20
2022-10-05T20:15:27.372Z,13.30
2022-10-05T20:18:13.155Z,13.20
2022-10-05T20:20:45.788Z,13.20
2022-10-05T20:23:24.712Z,13.10
2022-10-05T20:26:11.191Z,13.10
2022-10-05T20:28:40.771Z,13.20
2022-10-05T20:31:11.007Z,13.10
2022-10-05T20:33:40.295Z,13.10
2022-10-05T20:36:09.728Z,13.10
2022-10-05T20:38:40.900Z,13.10
2022-10-05T20:41:11.159Z,13.10
2022-10-05T20:43:40.609Z,13.00
2022-10-05T20:46:10.397Z,13.00
2022-10-05T20:48:42.103Z,13.00
2022-10-05T20:51:18.232Z,13.00
2022-10-05T20:53:46.284Z,13.00
2022-10-05T20:56:13.692Z,12.90
2022-10-05T20:58:48.225Z,12.90
2022-10-05T21:01:23.099Z,12.90
2022-10-05T21:03:53.279Z,13.00
2022-10-05T21:06:29.466Z,12.90
2022-10-05T21:09:01.565Z,12.90
2022-10-05T21:11:33.599Z,12.80
2022-10-05T21:14:05.782Z,12.70
2022-10-05T21:16:38.101Z,12.70
2022-10-05T21:19:12.266Z,12.70
2022-10-05T21:21:41.590Z,12.60
2022-10-05T21:24:13.811Z,12.70
2022-10-05T21:26:44.863Z,12.70
2022-10-05T21:29:13.031Z,12.70
2022-10-05T21:31:41.133Z,12.70
2022-10-05T21:34:08.978Z,12.70
2022-10-05T21:36:38.175Z,12.60
2022-10-05T21:39:10.002Z,12.60
2022-10-05T21:41:37.341Z,12.60
2022-10-05T21:44:06.240Z,12.60
2022-10-05T21:46:36.142Z,12.50
2022-10-05T21:49:09.855Z,12.50
2022-10-05T21:51:40.275Z,12.50
2022-10-05T21:54:21.799Z,12.50
2022-10-05T21:56:54.595Z,12.50
2022-10-05T21:59:26.519Z,12.50
2022-10-05T22:01:58.396Z,12.50
2022-10-05T22:04:30.997Z,12.50
2022-10-05T22:07:10.103Z,12.50
2022-10-05T22:09:39.413Z,12.50
2022-10-05T22:12:06.519Z,12.50
2022-10-05T22:14:35.673Z,12.50
2022-10-05T22:17:07.984Z,12.40
2022-10-05T22:19:35.103Z,12.40
2022-10-05T22:22:07.594Z,12.40
2022-10-05T22:24:45.129Z,12.40
2022-10-05T22:27:12.491Z,12.40
2022-10-05T22:29:43.270Z,12.40
2022-10-05T22:32:10.363Z,12.40
2022-10-05T22:34:37.634Z,12.40
2022-10-05T22:37:09.945Z,12.40
2022-10-05T22:39:36.991Z,12.40
2022-10-05T22:42:05.892Z,12.40
2022-10-05T22:44:35.727Z,12.40
2022-10-05T22:47:03.900Z,12.40
2022-10-05T22:49:35.957Z,12.40
2022-10-05T22:52:03.144Z,12.30
2022-10-05T22:54:32.473Z,12.30
2022-10-05T22:57:01.521Z,12.30
2022-10-05T22:59:30.912Z,12.30
2022-10-05T23:02:00.380Z,12.30
2022-10-05T23:04:27.693Z,12.30
2022-10-05T23:06:59.553Z,12.30
2022-10-05T23:09:26.777Z,12.30
2022-10-05T23:11:56.573Z,12.30
2022-10-05T23:14:30.748Z,12.20
2022-10-05T23:17:00.960Z,12.20
2022-10-05T23:19:32.550Z,12.20
2022-10-05T23:22:04.980Z,12.30
2022-10-05T23:24:32.321Z,12.20
2022-10-05T23:26:59.381Z,12.20
2022-10-05T23:29:31.204Z,12.20
2022-10-05T23:32:00.982Z,12.20
2022-10-05T23:34:30.224Z,12.20
2022-10-05T23:36:57.252Z,12.20
2022-10-05T23:39:24.719Z,12.20
2022-10-05T23:42:00.002Z,12.20
2022-10-05T23:44:34.235Z,12.20
2022-10-05T23:47:01.348Z,12.20
2022-10-05T23:49:28.540Z,12.10
2022-10-05T23:51:55.973Z,12.10
2022-10-05T23:54:30.010Z,12.10
2022-10-05T23:56:57.418Z,12.10
2022-10-05T23:59:26.638Z,12.10
